LEBB Airport Information

Runway Information
Runway 10 Length 6562 ft width 148 ft
Elevation 116 ft Threshold 0 ft Heading 97
Runway 28 Length 6562 ft Width 148 ft
Elevation 129 ft Threshold 0 ft Heading 277
Runway 12 Length 8530 ft width 148 ft
Elevation 119 ft Threshold 0 ft Heading 117
Runway 30 Length 8530 ft Width 148 ft
Elevation 128 ft Threshold 1509 ft Heading 297
Airport Frequencies
Type APP Name APP Frequency 120.7 MHZ
Type ATIS Name ATIS Frequency 118.825 MHZ
Type GND Name GND Frequency 121.7 MHZ
Type TWR Name TWR Frequency 118.5 MHZ
Airport Navaids
Type VOR-DME Name Bilbao Frequency 115900 KHZ
Airport Weather Information & NOTAM
ADDS - METARS form results

(0307 UTC 23 January 2022)
Data provider http://aviationweather.gov/metar/data/
 
METAR text: LEBB 230300Z AUTO 07003KT CAVOK M01/M01 Q1029
Conditions at: LEBB (BILBAO/SONDICA , ES) observed 0300 UTC 23 January 2022
Temperature: -1.0°C (30°F)
Dewpoint: -1.0°C (30°F) [RH = 100%]
Pressure (altimeter): 30.38 inches Hg (1029.0 mb)
Winds: from the ENE (70 degrees) at 3 MPH (3 knots; 1.5 m/s)
Visibility: 6 or more miles (10+ km)
Ceiling: ceiling and visibility are OK
Clouds: unknown
Weather: no significant weather observed at this time

METAR text: LEBB 230230Z AUTO 07003KT CAVOK M01/M01 Q1030
Conditions at: LEBB (BILBAO/SONDICA , ES) observed 0230 UTC 23 January 2022
Temperature: -1.0°C (30°F)
Dewpoint: -1.0°C (30°F) [RH = 100%]
Pressure (altimeter): 30.41 inches Hg (1030.0 mb)
Winds: from the ENE (70 degrees) at 3 MPH (3 knots; 1.5 m/s)
Visibility: 6 or more miles (10+ km)
Ceiling: ceiling and visibility are OK
Clouds: unknown
Weather: no significant weather observed at this time

Forecast for: AMD
Text: TAF AMD LEBB 230206Z 2302/2324 10004KT CAVOK TX12/2314Z TNM02/2306Z
Forecast period: 0200 UTC 23 January 2022 to 0000 UTC 24 January 2022
Forecast type: FROM: standard forecast or significant change
Winds: from the E (100 degrees) at 5 MPH (4 knots; 2.1 m/s)
Visibility: 6 or more miles (10+ km)
Ceiling: unknown
Clouds: missing
Weather: no significant weather forecast for this period
Text: PROB30
Forecast period: 0400 to 0800 UTC 23 January 2022
Forecast type: TEMPORARY: The following changes expected for less than half the time period
Visibility: 1.86 miles (2.99 km)
Ceiling: unknown
Clouds: missing
Weather: BR  (mist)
Text: TEMPO 2304/2308 3000 BR
Forecast period: 0400 to 0700 UTC 23 January 2022
Forecast type: TEMPORARY: The following changes expected for less than half the time period
Visibility: 0.31 miles (0.50 km)
Ceiling: unknown
Clouds: missing
Weather: FZFG  (freezing fog)